| time (UTC) | temp C | wind direction | speed KPH | gust KPH | rain 1hr cm | rain 24hr cm | rain mn cm | humidity % | barometer mb |
| 20260508184559 | 15 | 119 | 6.4 | 12.9 | 0.00 | 0.23 | 0.23 | 66 | 1016.4 |
| 20260508183056 | 15 | 208 | 4.8 | 19.3 | 0.00 | 0.23 | 0.23 | 63 | 1016.3 |
| 20260508181607 | 15 | 101 | 4.8 | 16.1 | 0.00 | 0.23 | 0.23 | 69 | 1016.7 |
| 20260508180103 | 15 | 207 | 4.8 | 16.1 | 0.00 | 0.23 | 0.23 | 69 | 1016.7 |
| 20260508174602 | 15 | 196 | 9.7 | 20.9 | 0.00 | 0.23 | 0.23 | 68 | 1017.0 |
| 20260508173046 | 15 | 245 | 4.8 | 20.9 | 0.00 | 0.23 | 0.23 | 70 | 1017.0 |
| 20260508171543 | 14 | 198 | 4.8 | 17.7 | 0.00 | 0.23 | 0.23 | 73 | 1017.2 |
| 20260508170040 | 13 | 219 | 4.8 | 12.9 | 0.00 | 0.23 | 0.23 | 75 | 1017.7 |
| 20260508164538 | 13 | 323 | 3.2 | 9.7 | 0.00 | 0.23 | 0.23 | 77 | 1017.9 |
| 20260508163039 | 12 | 354 | 1.6 | 6.4 | 0.00 | 0.23 | 0.23 | 78 | 1018.1 |
| 20260508161537 | 12 | 300 | 1.6 | 4.8 | 0.00 | 0.23 | 0.23 | 78 | 1018.2 |
| 20260508160034 | 12 | 231 | 0.0 | 4.8 | 0.00 | 0.23 | 0.23 | 78 | 1018.2 |
| 20260508154534 | 12 | 269 | 1.6 | 4.8 | 0.00 | 0.23 | 0.23 | 77 | 1018.3 |
| 20260508153034 | 12 | 332 | 0.0 | 6.4 | 0.00 | 0.23 | 0.23 | 80 | 1018.1 |
| 20260508151533 | 12 | 338 | 3.2 | 8.0 | 0.00 | 0.23 | 0.23 | 78 | 1018.3 |
| 20260508150034 | 12 | 279 | 1.6 | 9.7 | 0.00 | 0.23 | 0.23 | 75 | 1018.3 |
| 20260508144530 | 12 | 277 | 3.2 | 8.0 | 0.00 | 0.23 | 0.23 | 75 | 1018.2 |
| 20260508143027 | 12 | 264 | 4.8 | 12.9 | 0.00 | 0.23 | 0.23 | 76 | 1018.2 |
| 20260508141527 | 12 | 264 | 4.8 | 14.5 | 0.00 | 0.23 | 0.23 | 76 | 1018.3 |
| 20260508140030 | 12 | 251 | 4.8 | 11.3 | 0.00 | 0.23 | 0.23 | 77 | 1018.3 |
| 20260508134527 | 11 | 257 | 4.8 | 12.9 | 0.00 | 0.23 | 0.23 | 78 | 1018.4 |
| 20260508133020 | 11 | 269 | 1.6 | 14.5 | 0.00 | 0.23 | 0.23 | 79 | 1018.4 |
| 20260508131518 | 11 | 269 | 3.2 | 12.9 | 0.00 | 0.23 | 0.23 | 80 | 1018.5 |
| 20260508130016 | 11 | 249 | 3.2 | 9.7 | 0.00 | 0.23 | 0.23 | 78 | 1018.5 |
| 20260508124513 | 10 | 272 | 0.0 | 9.7 | 0.03 | 0.23 | 0.23 | 81 | 1018.7 |
| 20260508123011 | 10 | 251 | 0.0 | 6.4 | 0.18 | 0.23 | 0.23 | 85 | 1018.5 |
| 20260508121510 | 9 | 245 | 1.6 | 4.8 | 0.23 | 0.23 | 0.23 | 88 | 1018.4 |
| 20260508120011 | 8 | 211 | 0.0 | 4.8 | 0.23 | 0.23 | 0.23 | 87 | 1018.3 |
| 20260508114507 | 9 | 252 | 0.0 | 4.8 | 0.15 | 0.15 | 0.15 | 84 | 1018.1 |
| 20260508113014 | 10 | 223 | 0.0 | 9.7 | 0.05 | 0.05 | 0.05 | 80 | 1017.6 |
| 20260508111508 | 10 | 240 | 4.8 | 11.3 | 0.00 | 0.00 | 0.00 | 78 | 1017.7 |
| 20260508110013 | 10 | 188 | 1.6 | 16.1 | 0.00 | 0.00 | 0.00 | 78 | 1017.7 |
| 20260508104504 | 10 | 221 | 8.0 | 19.3 | 0.00 | 0.00 | 0.00 | 78 | 1017.6 |
| 20260508103004 | 10 | 172 | 6.4 | 12.9 | 0.00 | 0.00 | 0.00 | 80 | 1017.5 |
| 20260508101504 | 10 | 198 | 6.4 | 11.3 | 0.00 | 0.00 | 0.00 | 81 | 1017.5 |
| 20260508100002 | 9 | 207 | 3.2 | 9.7 | 0.00 | 0.00 | 0.00 | 82 | 1017.6 |
| 20260508094502 | 9 | 179 | 4.8 | 14.5 | 0.00 | 0.00 | 0.00 | 82 | 1017.6 |
| 20260508093001 | 8 | 199 | 6.4 | 12.9 | 0.00 | 0.00 | 0.00 | 83 | 1017.6 |
| 20260508091605 | 8 | 205 | 4.8 | 12.9 | 0.00 | 0.00 | 0.00 | 84 | 1017.7 |
| 20260508090100 | 8 | 207 | 4.8 | 12.9 | 0.00 | 0.00 | 0.00 | 84 | 1017.6 |
| 20260508084558 | 8 | 201 | 3.2 | 12.9 | 0.00 | 0.00 | 0.00 | 84 | 1017.7 |
| 20260508083056 | 8 | 205 | 6.4 | 11.3 | 0.00 | 0.00 | 0.00 | 85 | 1017.7 |
| 20260508081617 | 8 | 226 | 3.2 | 11.3 | 0.00 | 0.00 | 0.00 | 85 | 1017.9 |
| 20260508080054 | 9 | 213 | 4.8 | 14.5 | 0.00 | 0.00 | 0.00 | 84 | 1017.9 |
| 20260508074552 | 9 | 162 | 8.0 | 17.7 | 0.00 | 0.00 | 0.00 | 83 | 1017.9 |
| 20260508073052 | 9 | 207 | 4.8 | 14.5 | 0.00 | 0.00 | 0.00 | 82 | 1017.9 |
| 20260508071552 | 9 | 182 | 8.0 | 20.9 | 0.00 | 0.00 | 0.00 | 81 | 1018.1 |
| 20260508070039 | 8 | 227 | 1.6 | 11.3 | 0.00 | 0.00 | 0.00 | 81 | 1018.3 |
| 20260508064537 | 9 | 190 | 3.2 | 14.5 | 0.00 | 0.00 | 0.00 | 79 | 1018.3 |
| 20260508063047 | 9 | 205 | 3.2 | 11.3 | 0.00 | 0.00 | 0.00 | 78 | 1018.3 |
| 20260508061539 | 9 | 143 | 9.7 | 17.7 | 0.00 | 0.00 | 0.00 | 76 | 1018.3 |
| 20260508060035 | 9 | 201 | 0.0 | 16.1 | 0.00 | 0.00 | 0.00 | 75 | 1018.4 |
| 20260508054531 | 10 | 226 | 4.8 | 14.5 | 0.00 | 0.00 | 0.00 | 74 | 1018.4 |
| 20260508053028 | 10 | 198 | 8.0 | 25.7 | 0.00 | 0.00 | 0.00 | 72 | 1018.6 |
| 20260508051530 | 9 | 223 | 6.4 | 16.1 | 0.00 | 0.00 | 0.00 | 72 | 1018.5 |
| 20260508050023 | 10 | 210 | 1.6 | 9.7 | 0.00 | 0.00 | 0.00 | 72 | 1018.6 |
| 20260508044527 | 10 | 172 | 4.8 | 9.7 | 0.00 | 0.00 | 0.00 | 72 | 1018.6 |
| 20260508043022 | 10 | 191 | 3.2 | 8.0 | 0.00 | 0.00 | 0.00 | 72 | 1018.7 |
| 20260508041518 | 10 | 145 | 3.2 | 12.9 | 0.00 | 0.00 | 0.00 | 70 | 1018.6 |
| 20260508040014 | 10 | 181 | 3.2 | 9.7 | 0.00 | 0.00 | 0.00 | 69 | 1018.7 |
| 20260508034514 | 10 | 228 | 4.8 | 16.1 | 0.00 | 0.00 | 0.00 | 67 | 1018.8 |
| 20260508033015 | 11 | 212 | 1.6 | 14.5 | 0.00 | 0.00 | 0.00 | 66 | 1018.8 |
| 20260508031513 | 11 | 182 | 4.8 | 16.1 | 0.00 | 0.00 | 0.00 | 65 | 1018.7 |
| 20260508030012 | 11 | 199 | 11.3 | 24.1 | 0.00 | 0.00 | 0.00 | 64 | 1018.7 |
| 20260508024521 | 11 | 222 | 4.8 | 14.5 | 0.00 | 0.00 | 0.00 | 65 | 1019.1 |
| 20260508023017 | 11 | 193 | 9.7 | 24.1 | 0.00 | 0.00 | 0.00 | 64 | 1019.0 |
| 20260508021512 | 11 | 195 | 11.3 | 24.1 | 0.00 | 0.00 | 0.00 | 61 | 1018.9 |
| 20260508020010 | 11 | 226 | 8.0 | 14.5 | 0.00 | 0.00 | 0.00 | 59 | 1018.8 |
| 20260508014510 | 11 | 240 | 4.8 | 17.7 | 0.00 | 0.00 | 0.00 | 57 | 1018.8 |
| 20260508013009 | 11 | 233 | 3.2 | 19.3 | 0.00 | 0.00 | 0.00 | 56 | 1018.6 |
| 20260508011508 | 10 | 193 | 0.0 | 0.0 | 0.00 | 0.00 | 0.00 | 61 | 1018.3 |
| 20260508010007 | 10 | 252 | 0.0 | 0.0 | 0.00 | 0.00 | 0.00 | 63 | 1018.1 |
| 20260508004506 | 10 | 252 | 0.0 | 0.0 | 0.00 | 0.00 | 0.00 | 61 | 1017.9 |
| 20260508003006 | 11 | 252 | 0.0 | 0.0 | 0.00 | 0.00 | 0.00 | 56 | 1017.9 |
| 20260508001506 | 12 | 252 | 0.0 | 0.0 | 0.00 | 0.00 | 0.00 | 52 | 1017.9 |
| 20260508000005 | 12 | 214 | 0.0 | 4.8 | 0.00 | 0.00 | 0.00 | 47 | 1017.8 |
| 20260507234507 | 13 | 253 | 0.0 | 6.4 | 0.00 | 0.00 | 0.00 | 44 | 1017.8 |
| 20260507233006 | 13 | 244 | 1.6 | 8.0 | 0.00 | 0.00 | 0.00 | 46 | 1017.8 |
| 20260507231503 | 13 | 252 | 1.6 | 8.0 | 0.00 | 0.00 | 0.00 | 43 | 1017.9 |
| 20260507230003 | 13 | 226 | 4.8 | 11.3 | 0.00 | 0.00 | 0.00 | 42 | 1018.0 |
| 20260507224610 | 13 | 263 | 1.6 | 14.5 | 0.00 | 0.00 | 0.00 | 46 | 1018.1 |
| 20260507223059 | 13 | 246 | 4.8 | 16.1 | 0.00 | 0.00 | 0.00 | 43 | 1018.2 |
| 20260507221558 | 13 | 273 | 1.6 | 16.1 | 0.00 | 0.00 | 0.00 | 45 | 1018.2 |
| 20260507220057 | 13 | 186 | 8.0 | 22.5 | 0.00 | 0.00 | 0.00 | 41 | 1018.3 |
| 20260507214604 | 13 | 276 | 3.2 | 20.9 | 0.00 | 0.00 | 0.00 | 47 | 1018.2 |
| 20260507213052 | 13 | 273 | 4.8 | 17.7 | 0.00 | 0.00 | 0.00 | 46 | 1018.3 |
| 20260507211551 | 13 | 288 | 6.4 | 25.7 | 0.00 | 0.00 | 0.00 | 44 | 1018.3 |
| 20260507210055 | 13 | 278 | 3.2 | 22.5 | 0.00 | 0.00 | 0.00 | 47 | 1018.2 |
| 20260507204547 | 13 | 308 | 6.4 | 22.5 | 0.00 | 0.00 | 0.00 | 44 | 1018.3 |
| 20260507203102 | 13 | 258 | 9.7 | 20.9 | 0.00 | 0.00 | 0.00 | 42 | 1018.4 |
| 20260507201555 | 13 | 266 | 9.7 | 19.3 | 0.00 | 0.00 | 0.00 | 43 | 1018.5 |
| 20260507200058 | 13 | 279 | 11.3 | 30.6 | 0.00 | 0.00 | 0.00 | 43 | 1018.5 |
| 20260507194538 | 13 | 280 | 6.4 | 14.5 | 0.00 | 0.00 | 0.00 | 45 | 1018.5 |
| 20260507193044 | 13 | 221 | 9.7 | 19.3 | 0.00 | 0.00 | 0.00 | 46 | 1018.7 |
| 20260507191535 | 13 | 240 | 11.3 | 20.9 | 0.00 | 0.00 | 0.00 | 47 | 1018.8 |
| 20260507190033 | 12 | 231 | 9.7 | 22.5 | 0.00 | 0.00 | 0.00 | 46 | 1018.8 |